createdAt,value
2018-09-02T00:02:17.540Z,102541.56
2018-09-02T00:04:45.233Z,102544.05
2018-09-02T00:07:12.944Z,102539.34
2018-09-02T00:09:40.630Z,102539.84
2018-09-02T00:12:08.325Z,102540.27
2018-09-02T00:14:36.027Z,102547.77
2018-09-02T00:17:03.704Z,102543.44
2018-09-02T00:19:31.369Z,102540.52
2018-09-02T00:21:59.090Z,102541.86
2018-09-02T00:24:26.805Z,102543.25
2018-09-02T00:26:54.493Z,102549.23
2018-09-02T00:29:22.197Z,102547.69
2018-09-02T00:31:50.015Z,102545.58
2018-09-02T00:34:17.739Z,102550.41
2018-09-02T00:36:45.471Z,102548.53
2018-09-02T00:39:13.169Z,102549.49
2018-09-02T00:41:40.887Z,102555.84
2018-09-02T00:44:09.020Z,102554.80
2018-09-02T00:46:36.708Z,102552.09
2018-09-02T00:49:04.812Z,102557.94
2018-09-02T00:51:32.543Z,102558.37
2018-09-02T00:54:00.268Z,102549.92
2018-09-02T00:56:27.994Z,102548.23
2018-09-02T00:58:55.685Z,102552.88
2018-09-02T01:01:23.396Z,102558.25
2018-09-02T01:03:51.069Z,102561.58
2018-09-02T01:06:18.732Z,102560.50
2018-09-02T01:08:46.429Z,102561.89
2018-09-02T01:11:14.164Z,102572.66
2018-09-02T01:13:41.873Z,102561.52
2018-09-02T01:16:09.681Z,102562.88
2018-09-02T01:18:37.370Z,102570.73
2018-09-02T01:21:05.089Z,102577.97
2018-09-02T01:23:32.798Z,102581.06
2018-09-02T01:26:00.501Z,102576.24
2018-09-02T01:28:28.191Z,102571.78
2018-09-02T01:30:55.879Z,102576.13
2018-09-02T01:33:23.577Z,102575.42
2018-09-02T01:35:51.267Z,102581.86
2018-09-02T01:38:18.952Z,102577.91
2018-09-02T01:40:46.641Z,102577.34
2018-09-02T01:43:14.318Z,102579.45
2018-09-02T01:45:42.025Z,102576.84
2018-09-02T01:48:09.709Z,102569.77
2018-09-02T01:50:37.412Z,102567.89
2018-09-02T01:53:05.256Z,102579.84
2018-09-02T01:55:32.940Z,102571.61
2018-09-02T01:58:00.638Z,102570.13
2018-09-02T02:00:28.337Z,102560.74
2018-09-02T02:02:56.060Z,102561.02
2018-09-02T02:05:23.756Z,102551.56
2018-09-02T02:07:51.505Z,102552.09
2018-09-02T02:10:19.199Z,102552.12
2018-09-02T02:12:46.881Z,102546.80
2018-09-02T02:15:14.560Z,102553.58
2018-09-02T02:17:42.237Z,102559.94
2018-09-02T02:20:09.977Z,102566.33
2018-09-02T02:22:37.677Z,102568.69
2018-09-02T02:25:05.398Z,102564.47
2018-09-02T02:27:33.101Z,102557.61
2018-09-02T02:30:00.886Z,102553.06
2018-09-02T02:32:28.597Z,102558.28
2018-09-02T02:34:56.291Z,102550.93
2018-09-02T02:37:23.989Z,102559.92
2018-09-02T02:39:51.681Z,102571.46
2018-09-02T02:42:19.409Z,102571.19
2018-09-02T02:44:47.114Z,102579.47
2018-09-02T02:47:14.836Z,102578.87
2018-09-02T02:49:42.581Z,102580.31
2018-09-02T02:52:10.330Z,102572.19
2018-09-02T02:54:38.000Z,102567.95
2018-09-02T02:57:05.697Z,102567.12
2018-09-02T02:59:33.373Z,102566.95
2018-09-02T03:02:01.076Z,102568.19
2018-09-02T03:04:28.803Z,102562.24
2018-09-02T03:06:56.507Z,102581.02
2018-09-02T03:09:24.168Z,102580.30
2018-09-02T03:11:51.959Z,102585.25
2018-09-02T03:14:19.667Z,102581.53
2018-09-02T03:16:47.369Z,102578.23
2018-09-02T03:19:15.070Z,102570.47
2018-09-02T03:21:42.763Z,102576.30
2018-09-02T03:24:10.472Z,102578.29
2018-09-02T03:26:38.162Z,102587.89
2018-09-02T03:29:06.018Z,102582.14
2018-09-02T03:31:33.702Z,102583.84
2018-09-02T03:34:01.417Z,102574.42
2018-09-02T03:36:29.162Z,102575.19
2018-09-02T03:38:56.848Z,102579.17
2018-09-02T03:41:24.592Z,102585.65
2018-09-02T03:43:52.434Z,102582.91
2018-09-02T03:46:20.130Z,102580.16
2018-09-02T03:48:47.918Z,102579.11
2018-09-02T03:51:15.607Z,102586.24
2018-09-02T03:53:43.282Z,102585.23
2018-09-02T03:56:10.946Z,102585.87
2018-09-02T03:58:38.636Z,102591.11
2018-09-02T04:01:06.483Z,102591.66
2018-09-02T04:03:34.197Z,102585.00
2018-09-02T04:06:01.916Z,102582.45
2018-09-02T04:08:29.589Z,102581.79
2018-09-02T04:10:57.263Z,102592.42
2018-09-02T04:13:24.964Z,102591.09
2018-09-02T04:15:52.643Z,102588.89
2018-09-02T04:18:20.402Z,102584.12
2018-09-02T04:20:48.085Z,102584.34
2018-09-02T04:23:15.754Z,102587.16
2018-09-02T04:25:43.434Z,102576.43
2018-09-02T04:28:11.138Z,102568.68
2018-09-02T04:30:38.837Z,102568.10
2018-09-02T04:33:06.557Z,102565.87
2018-09-02T04:35:34.244Z,102571.11
2018-09-02T04:38:02.033Z,102567.02
2018-09-02T04:40:29.725Z,102571.30
2018-09-02T04:42:57.391Z,102574.95
2018-09-02T04:45:25.220Z,102577.47
2018-09-02T04:47:52.915Z,102575.09
2018-09-02T04:50:21.143Z,102577.79
2018-09-02T04:52:48.852Z,102567.42
2018-09-02T04:55:16.547Z,102568.83
2018-09-02T04:57:44.911Z,102569.20
2018-09-02T05:00:12.624Z,102572.31
2018-09-02T05:02:40.325Z,102570.69
2018-09-02T05:05:08.031Z,102581.97
2018-09-02T05:07:36.054Z,102587.70
2018-09-02T05:10:04.105Z,102596.11
2018-09-02T05:12:31.792Z,102604.92
2018-09-02T05:14:59.556Z,102610.76
2018-09-02T05:17:29.054Z,102598.81
2018-09-02T05:19:57.293Z,102601.28
2018-09-02T05:22:25.082Z,102606.67
2018-09-02T05:24:52.777Z,102602.11
2018-09-02T05:27:20.620Z,102596.20
2018-09-02T05:29:48.944Z,102598.00
2018-09-02T05:32:16.684Z,102602.20
2018-09-02T05:34:44.377Z,102603.45
2018-09-02T05:37:12.275Z,102598.97
2018-09-02T05:39:39.957Z,102601.22
2018-09-02T05:42:07.645Z,102603.77
2018-09-02T05:44:35.343Z,102600.95
2018-09-02T05:47:03.045Z,102590.36
2018-09-02T05:49:30.757Z,102593.84
2018-09-02T05:51:58.445Z,102593.02
2018-09-02T05:54:26.133Z,102595.07
2018-09-02T05:56:53.834Z,102587.80
2018-09-02T05:59:21.568Z,102597.41
2018-09-02T06:01:49.266Z,102587.30
2018-09-02T06:04:17.037Z,102582.52
2018-09-02T06:06:44.720Z,102577.31
2018-09-02T06:09:12.426Z,102582.81
2018-09-02T06:11:40.158Z,102583.44
2018-09-02T06:14:07.946Z,102589.41
2018-09-02T06:16:35.629Z,102588.90
2018-09-02T06:19:03.344Z,102595.14
2018-09-02T06:21:31.180Z,102587.19
2018-09-02T06:23:58.884Z,102586.05
2018-09-02T06:26:26.569Z,102590.31
2018-09-02T06:28:54.621Z,102582.70
2018-09-02T06:31:22.440Z,102594.38
2018-09-02T06:33:50.126Z,102590.59
2018-09-02T06:36:18.191Z,102590.42
2018-09-02T06:38:45.930Z,102600.34
2018-09-02T06:41:13.666Z,102602.74
2018-09-02T06:43:41.388Z,102602.43
2018-09-02T06:46:09.099Z,102534.06
2018-09-02T06:48:36.878Z,102605.20
2018-09-02T06:51:04.605Z,102599.59
2018-09-02T06:53:32.392Z,102601.91
2018-09-02T06:56:00.149Z,102599.30
2018-09-02T06:58:27.945Z,102601.11
2018-09-02T07:00:55.660Z,102604.37
2018-09-02T07:03:23.463Z,102612.86
2018-09-02T07:05:51.169Z,102581.75
2018-09-02T07:08:18.868Z,102611.86
2018-09-02T07:10:46.589Z,102626.54
2018-09-02T07:13:14.288Z,102619.01
2018-09-02T07:15:41.978Z,102619.23
2018-09-02T07:18:09.708Z,102616.95
2018-09-02T07:20:37.407Z,102620.52
2018-09-02T07:23:05.404Z,102609.87
2018-09-02T07:25:33.364Z,102614.30
2018-09-02T07:28:01.090Z,102608.81
2018-09-02T07:30:28.809Z,102614.50
2018-09-02T07:32:56.521Z,102617.52
2018-09-02T07:35:24.228Z,102611.03
2018-09-02T07:37:51.944Z,102606.98
2018-09-02T07:40:19.692Z,102595.71
2018-09-02T07:42:47.485Z,102599.20
2018-09-02T07:45:15.540Z,102592.61
2018-09-02T07:47:43.380Z,102596.21
2018-09-02T07:50:11.090Z,102605.17
2018-09-02T07:52:38.816Z,102607.02
2018-09-02T07:55:06.953Z,102608.41
2018-09-02T07:57:34.642Z,102604.44
2018-09-02T08:00:02.385Z,102605.58
2018-09-02T08:02:30.072Z,102601.24
2018-09-02T08:04:57.765Z,102594.45
2018-09-02T08:07:25.484Z,102593.05
2018-09-02T08:09:53.185Z,102594.14
2018-09-02T08:12:20.935Z,102593.17
2018-09-02T08:14:48.692Z,102599.90
2018-09-02T08:17:16.375Z,102599.10
2018-09-02T08:19:44.228Z,102600.17
2018-09-02T08:22:11.903Z,102596.97
2018-09-02T08:24:39.634Z,102589.99
2018-09-02T08:27:07.346Z,102582.75
2018-09-02T08:29:35.057Z,102581.28
2018-09-02T08:32:02.787Z,102578.47
2018-09-02T08:34:30.459Z,102567.06
2018-09-02T08:36:58.193Z,102562.59
2018-09-02T08:39:25.878Z,102572.54
2018-09-02T08:41:53.538Z,102561.48
2018-09-02T08:44:21.320Z,102558.45
2018-09-02T08:46:48.997Z,102563.62
2018-09-02T08:49:16.698Z,102557.36
2018-09-02T08:51:44.390Z,102557.22
2018-09-02T08:54:12.071Z,102560.17
2018-09-02T08:56:39.826Z,102564.88
2018-09-02T08:59:07.500Z,102564.12
2018-09-02T09:01:35.241Z,102573.16
2018-09-02T09:04:02.863Z,102569.34
2018-09-02T09:06:30.609Z,102576.16
2018-09-02T09:08:58.618Z,102564.02
2018-09-02T09:11:26.145Z,102572.20
2018-09-02T09:13:54.317Z,102503.59
2018-09-02T09:16:22.111Z,102574.91
2018-09-02T09:18:49.830Z,102562.63
2018-09-02T09:21:17.530Z,102567.11
2018-09-02T09:23:45.248Z,102570.00
2018-09-02T09:26:12.934Z,102571.97
2018-09-02T09:28:40.610Z,102559.92
2018-09-02T09:31:08.838Z,102557.39
2018-09-02T09:33:36.563Z,102562.91
2018-09-02T09:36:04.310Z,102565.57
2018-09-02T09:38:32.117Z,102560.35
2018-09-02T09:40:59.814Z,102556.33
2018-09-02T09:43:27.509Z,102558.39
2018-09-02T09:45:55.231Z,102555.25
2018-09-02T09:48:22.934Z,102558.67
2018-09-02T09:50:50.611Z,102563.47
2018-09-02T09:53:18.334Z,102520.43
2018-09-02T09:55:46.035Z,102552.80
2018-09-02T09:58:13.730Z,102547.12
2018-09-02T10:00:47.065Z,102540.88
2018-09-02T10:03:14.803Z,102551.50
2018-09-02T10:05:42.500Z,102559.34
2018-09-02T10:08:10.559Z,102558.75
2018-09-02T10:10:38.233Z,102558.17
2018-09-02T10:13:06.009Z,102555.52
2018-09-02T10:15:34.173Z,102561.49
2018-09-02T10:18:02.000Z,102558.56
2018-09-02T10:20:30.044Z,102562.03
2018-09-02T10:22:57.850Z,102567.21
2018-09-02T10:25:25.536Z,102573.63
2018-09-02T10:27:53.330Z,102572.78
2018-09-02T10:30:21.150Z,102582.39
2018-09-02T10:32:48.951Z,102578.48
2018-09-02T10:35:16.849Z,102583.65
2018-09-02T10:37:44.707Z,102582.87
2018-09-02T10:40:12.434Z,102577.00
2018-09-02T10:42:40.113Z,102585.77
2018-09-02T10:45:07.966Z,102574.81
2018-09-02T10:47:35.731Z,102572.39
2018-09-02T10:50:03.516Z,102568.48
2018-09-02T10:52:31.349Z,102560.14
2018-09-02T10:54:59.045Z,102559.25
2018-09-02T10:57:26.857Z,102556.59
2018-09-02T10:59:54.793Z,102551.05
2018-09-02T11:02:22.521Z,102558.09
2018-09-02T11:04:50.256Z,102564.07
2018-09-02T11:07:18.085Z,102562.03
2018-09-02T11:09:45.780Z,102561.86
2018-09-02T11:12:13.529Z,102557.88
2018-09-02T11:14:41.360Z,102560.05
2018-09-02T11:17:09.065Z,102563.03
2018-09-02T11:19:36.791Z,102559.83
2018-09-02T11:22:04.613Z,102560.83
2018-09-02T11:24:32.292Z,102554.17
2018-09-02T11:26:59.997Z,102549.41
2018-09-02T11:29:27.869Z,102555.56
2018-09-02T11:31:55.553Z,102550.50
2018-09-02T11:34:23.526Z,102546.25
2018-09-02T11:36:51.377Z,102543.73
2018-09-02T11:39:19.090Z,102543.57
2018-09-02T11:41:46.781Z,102540.80
2018-09-02T11:44:14.489Z,102318.10
2018-09-02T11:46:42.227Z,102533.92
2018-09-02T11:49:09.969Z,102529.37
2018-09-02T11:51:37.690Z,102533.09
2018-09-02T11:54:05.581Z,102529.22
2018-09-02T11:56:33.304Z,102530.53
2018-09-02T11:59:01.066Z,102532.20
2018-09-02T12:01:28.873Z,102524.35
2018-09-02T12:03:56.575Z,102528.59
2018-09-02T12:06:24.293Z,102523.88
2018-09-02T12:08:51.993Z,102525.59
2018-09-02T12:11:19.662Z,102524.81
2018-09-02T12:13:47.334Z,102519.70
2018-09-02T12:16:15.014Z,102517.46
2018-09-02T12:18:42.690Z,102513.64
2018-09-02T12:21:10.346Z,102520.20
2018-09-02T12:23:38.009Z,102520.52
2018-09-02T12:26:05.710Z,102512.94
2018-09-02T12:28:33.373Z,102521.67
2018-09-02T12:31:01.046Z,102508.84
2018-09-02T12:33:28.702Z,102508.17
2018-09-02T12:35:56.590Z,102514.37
2018-09-02T12:38:24.270Z,102504.03
2018-09-02T12:40:51.940Z,102504.95
2018-09-02T12:43:19.665Z,102514.45
2018-09-02T12:45:47.446Z,102511.05
2018-09-02T12:48:15.199Z,102512.38
2018-09-02T12:50:42.886Z,102512.00
2018-09-02T12:53:10.682Z,102514.80
2018-09-02T12:55:38.456Z,102511.82
2018-09-02T12:58:06.190Z,102508.77
2018-09-02T13:00:34.507Z,102508.98
2018-09-02T13:03:02.751Z,102514.06
2018-09-02T13:05:30.482Z,102497.66
2018-09-02T13:07:58.157Z,102498.03
2018-09-02T13:10:25.836Z,102504.81
2018-09-02T13:12:53.582Z,102488.15
2018-09-02T13:15:21.393Z,102496.09
2018-09-02T13:17:49.043Z,102492.73
2018-09-02T13:20:16.734Z,102478.43
2018-09-02T13:22:44.545Z,102491.95
2018-09-02T13:25:12.269Z,102486.70
2018-09-02T13:27:39.966Z,102485.22
2018-09-02T13:30:09.035Z,102484.45
2018-09-02T13:32:36.891Z,102483.95
2018-09-02T13:35:05.151Z,102477.55
2018-09-02T13:37:32.864Z,102481.68
2018-09-02T13:40:00.614Z,102474.51
2018-09-02T13:42:28.425Z,102447.02
2018-09-02T13:44:56.139Z,102489.47
2018-09-02T13:47:25.235Z,102485.94
2018-09-02T13:49:53.178Z,102490.05
2018-09-02T13:52:20.961Z,102484.80
2018-09-02T13:54:48.751Z,102479.27
2018-09-02T13:57:16.412Z,102487.00
2018-09-02T13:59:44.395Z,102484.61
2018-09-02T14:02:12.052Z,102479.23
2018-09-02T14:04:39.802Z,102478.19
2018-09-02T14:07:07.593Z,102477.03
2018-09-02T14:09:35.277Z,102476.02
2018-09-02T14:12:03.009Z,102475.63
2018-09-02T14:14:30.716Z,102479.83
2018-09-02T14:16:58.424Z,102484.27
2018-09-02T14:19:26.146Z,102481.23
2018-09-02T14:21:53.869Z,102480.68
2018-09-02T14:24:21.564Z,102480.22
2018-09-02T14:26:49.285Z,102483.31
2018-09-02T14:29:17.053Z,102479.42
2018-09-02T14:31:44.721Z,102491.41
2018-09-02T14:34:12.477Z,102487.98
2018-09-02T14:36:40.160Z,102481.52
2018-09-02T14:39:10.245Z,102483.30
2018-09-02T14:41:37.929Z,102487.00
2018-09-02T14:44:05.671Z,102487.41
2018-09-02T14:46:33.396Z,102485.86
2018-09-02T14:49:01.143Z,102486.37
2018-09-02T14:51:28.885Z,102486.05
2018-09-02T14:53:56.599Z,102478.77
2018-09-02T14:56:24.332Z,102486.55
2018-09-02T14:58:52.087Z,102488.01
2018-09-02T15:01:19.916Z,102487.77
2018-09-02T15:03:47.601Z,102483.80
2018-09-02T15:06:15.372Z,102484.98
2018-09-02T15:08:43.109Z,102490.92
2018-09-02T15:11:10.805Z,102486.73
2018-09-02T15:13:38.585Z,102484.76
2018-09-02T15:16:06.447Z,102481.42
2018-09-02T15:18:34.209Z,102478.54
2018-09-02T15:21:01.909Z,102475.48
2018-09-02T15:23:29.620Z,102475.13
2018-09-02T15:25:57.366Z,102475.48
2018-09-02T15:28:25.072Z,102470.06
2018-09-02T15:30:52.777Z,102472.58
2018-09-02T15:33:20.480Z,102471.99
2018-09-02T15:35:48.378Z,102471.44
2018-09-02T15:38:16.075Z,102438.47
2018-09-02T15:40:43.775Z,102476.00
2018-09-02T15:43:11.472Z,102462.62
2018-09-02T15:45:39.198Z,102466.22
2018-09-02T15:48:06.895Z,102464.72
2018-09-02T15:50:34.782Z,102461.67
2018-09-02T15:53:02.466Z,102465.56
2018-09-02T15:55:30.198Z,102468.68
2018-09-02T15:57:57.907Z,102473.36
2018-09-02T16:00:25.618Z,102469.27
2018-09-02T16:02:53.412Z,102472.69
2018-09-02T16:05:21.406Z,102462.17
2018-09-02T16:07:49.109Z,102460.92
2018-09-02T16:10:16.807Z,102462.55
2018-09-02T16:12:44.652Z,102456.36
2018-09-02T16:15:12.413Z,102456.31
2018-09-02T16:17:40.105Z,102458.91
2018-09-02T16:20:07.835Z,102464.00
2018-09-02T16:22:35.545Z,102464.88
2018-09-02T16:25:03.369Z,102463.42
2018-09-02T16:27:31.092Z,102469.65
2018-09-02T16:29:58.792Z,102466.48
2018-09-02T16:32:28.314Z,102470.40
2018-09-02T16:34:56.125Z,102476.12
2018-09-02T16:37:23.956Z,102475.92
2018-09-02T16:39:51.776Z,102479.02
2018-09-02T16:42:19.474Z,102486.70
2018-09-02T16:44:47.192Z,102486.15
2018-09-02T16:47:15.029Z,102484.44
2018-09-02T16:49:42.778Z,102485.16
2018-09-02T16:52:10.466Z,102481.44
2018-09-02T16:54:38.230Z,102475.62
2018-09-02T16:57:06.103Z,102475.08
2018-09-02T16:59:33.799Z,102477.00
2018-09-02T17:02:01.608Z,102477.95
2018-09-02T17:04:31.446Z,102478.51
2018-09-02T17:06:59.118Z,102478.71
2018-09-02T17:09:26.951Z,102476.91
2018-09-02T17:11:54.796Z,102480.75
2018-09-02T17:14:22.450Z,102472.81
2018-09-02T17:16:50.228Z,102475.69
2018-09-02T17:19:23.465Z,102480.95
2018-09-02T17:21:51.366Z,102477.44
2018-09-02T17:24:19.088Z,102474.01
2018-09-02T17:26:46.790Z,102474.30
2018-09-02T17:29:14.616Z,102476.20
2018-09-02T17:31:42.330Z,102470.02
2018-09-02T17:34:10.045Z,102471.94
2018-09-02T17:36:37.806Z,102479.75
2018-09-02T17:39:07.716Z,102477.66
2018-09-02T17:41:35.567Z,102471.55
2018-09-02T17:44:03.369Z,102472.62
2018-09-02T17:46:31.102Z,102468.52
2018-09-02T17:48:58.784Z,102471.57
2018-09-02T17:51:26.566Z,102473.11
2018-09-02T17:53:54.251Z,102472.47
2018-09-02T17:56:21.954Z,102473.51
2018-09-02T17:58:49.688Z,102471.99
2018-09-02T18:01:17.565Z,102476.38
2018-09-02T18:03:45.394Z,102471.81
2018-09-02T18:06:13.096Z,102473.98
2018-09-02T18:08:40.821Z,102469.60
2018-09-02T18:11:08.749Z,102469.34
2018-09-02T18:13:36.621Z,102475.63
2018-09-02T18:16:04.474Z,102469.99
2018-09-02T18:18:32.232Z,102472.95
2018-09-02T18:20:59.998Z,102462.00
2018-09-02T18:23:27.711Z,102470.59
2018-09-02T18:25:55.557Z,102467.41
2018-09-02T18:28:26.189Z,102468.87
2018-09-02T18:30:53.938Z,102467.44
2018-09-02T18:33:21.632Z,102470.30
2018-09-02T18:35:49.334Z,102471.82
2018-09-02T18:38:17.033Z,102463.05
2018-09-02T18:40:44.765Z,102467.91
2018-09-02T18:43:12.479Z,102472.19
2018-09-02T18:45:40.197Z,102467.95
2018-09-02T18:48:07.916Z,102466.05
2018-09-02T18:50:35.645Z,102474.50
2018-09-02T18:53:03.389Z,102471.57
2018-09-02T18:55:34.722Z,102473.40
2018-09-02T18:58:02.431Z,102470.92
2018-09-02T19:00:30.102Z,102472.45
2018-09-02T19:02:57.864Z,102465.59
2018-09-02T19:05:25.557Z,102466.02
2018-09-02T19:07:53.287Z,102468.95
2018-09-02T19:10:21.039Z,102472.06
2018-09-02T19:12:48.751Z,102475.39
2018-09-02T19:15:16.459Z,102485.20
2018-09-02T19:17:44.170Z,102486.45
2018-09-02T19:20:11.890Z,102493.59
2018-09-02T19:22:39.585Z,102487.08
2018-09-02T19:25:07.416Z,102486.53
2018-09-02T19:27:35.146Z,102493.14
2018-09-02T19:30:02.918Z,102482.81
2018-09-02T19:32:30.602Z,102489.67
2018-09-02T19:34:58.359Z,102491.60
2018-09-02T19:37:26.059Z,102491.83
2018-09-02T19:39:53.750Z,102491.47
2018-09-02T19:42:21.465Z,102489.93
2018-09-02T19:44:49.178Z,102446.63
2018-09-02T19:47:16.883Z,102485.10
2018-09-02T19:49:44.568Z,102483.46
2018-09-02T19:52:12.231Z,102488.92
2018-09-02T19:54:39.901Z,102482.45
2018-09-02T19:57:07.593Z,102488.30
2018-09-02T19:59:35.294Z,102492.86
2018-09-02T20:02:02.993Z,102489.17
2018-09-02T20:04:30.688Z,102498.43
2018-09-02T20:06:58.392Z,102495.00
2018-09-02T20:09:26.050Z,102497.39
2018-09-02T20:11:53.716Z,102504.73
2018-09-02T20:14:21.412Z,102499.16
2018-09-02T20:16:49.102Z,102501.52
2018-09-02T20:19:16.762Z,102501.50
2018-09-02T20:21:44.516Z,102500.23
2018-09-02T20:24:12.248Z,102495.41
2018-09-02T20:26:40.012Z,102496.86
2018-09-02T20:29:07.729Z,102496.73
2018-09-02T20:31:35.408Z,102490.75
2018-09-02T20:34:03.122Z,102490.25
2018-09-02T20:36:30.805Z,102493.78
2018-09-02T20:38:58.504Z,102501.02
2018-09-02T20:41:26.220Z,102493.85
2018-09-02T20:43:53.905Z,102504.44
2018-09-02T20:46:21.669Z,102498.63
2018-09-02T20:48:49.354Z,102501.53
2018-09-02T20:51:17.460Z,102494.44
2018-09-02T20:53:45.090Z,102496.88
2018-09-02T20:56:12.818Z,102504.77
2018-09-02T20:58:40.504Z,102499.23
2018-09-02T21:01:08.182Z,102499.01
2018-09-02T21:03:35.942Z,102388.97
2018-09-02T21:06:04.648Z,102507.00
2018-09-02T21:08:32.464Z,102508.33
2018-09-02T21:11:00.158Z,102502.16
2018-09-02T21:13:27.853Z,102500.34
2018-09-02T21:15:55.514Z,102502.72
2018-09-02T21:18:23.197Z,102500.61
2018-09-02T21:20:50.864Z,102498.50
2018-09-02T21:23:18.549Z,102497.23
2018-09-02T21:25:46.241Z,102508.59
2018-09-02T21:28:13.933Z,102499.05
2018-09-02T21:30:41.613Z,102499.81
2018-09-02T21:33:09.370Z,102491.86
2018-09-02T21:35:37.038Z,102499.90
2018-09-02T21:38:04.747Z,102498.63
2018-09-02T21:40:32.446Z,102501.69
2018-09-02T21:43:00.117Z,102499.42
2018-09-02T21:45:27.802Z,102499.88
2018-09-02T21:47:55.565Z,102501.77
2018-09-02T21:50:23.339Z,102499.33
2018-09-02T21:52:51.095Z,102496.02
2018-09-02T21:55:18.796Z,102500.17
2018-09-02T21:57:46.446Z,102498.39
2018-09-02T22:00:15.821Z,102499.73
2018-09-02T22:02:43.487Z,102495.98
2018-09-02T22:05:12.494Z,102493.34
2018-09-02T22:07:40.900Z,102498.11
2018-09-02T22:10:08.718Z,102492.47
2018-09-02T22:12:36.384Z,102491.91
2018-09-02T22:15:04.395Z,102484.84
2018-09-02T22:17:32.075Z,102490.52
2018-09-02T22:19:59.746Z,102484.50
2018-09-02T22:22:27.410Z,102485.59
2018-09-02T22:24:55.100Z,102491.98
2018-09-02T22:27:22.808Z,102486.56
2018-09-02T22:29:50.477Z,102493.77
2018-09-02T22:32:18.153Z,102490.81
2018-09-02T22:34:45.832Z,102486.34
2018-09-02T22:37:13.521Z,102486.27
2018-09-02T22:39:41.179Z,102491.55
2018-09-02T22:42:08.894Z,102494.75
2018-09-02T22:44:36.562Z,102499.67
2018-09-02T22:47:04.272Z,102496.89
2018-09-02T22:49:31.956Z,102499.48
2018-09-02T22:51:59.649Z,102501.83
2018-09-02T22:54:27.333Z,102496.26
2018-09-02T22:56:55.026Z,102493.84
2018-09-02T22:59:22.722Z,102487.89
2018-09-02T23:01:50.426Z,102486.72
2018-09-02T23:04:18.121Z,102492.78
2018-09-02T23:06:45.795Z,102483.64
2018-09-02T23:09:13.494Z,102486.98
2018-09-02T23:11:41.164Z,102485.50
2018-09-02T23:14:08.836Z,102490.70
2018-09-02T23:16:36.603Z,102483.53
2018-09-02T23:19:04.333Z,102489.61
2018-09-02T23:21:32.022Z,102476.12
2018-09-02T23:23:59.808Z,102482.45
2018-09-02T23:26:27.513Z,102478.80
2018-09-02T23:28:55.293Z,102473.44
2018-09-02T23:31:23.030Z,102476.02
2018-09-02T23:33:50.913Z,102473.06
2018-09-02T23:36:18.612Z,102459.11
2018-09-02T23:38:46.290Z,102472.38
2018-09-02T23:41:13.989Z,102467.52
2018-09-02T23:43:41.700Z,102462.47
2018-09-02T23:46:09.393Z,102472.19
2018-09-02T23:48:37.089Z,102475.08
2018-09-02T23:51:04.957Z,102476.82
2018-09-02T23:53:32.651Z,102480.98
2018-09-02T23:56:00.345Z,102474.41
2018-09-02T23:58:28.060Z,102472.66
